createdAt,value
2019-01-09T19:21:28.886Z,26.90
2019-01-09T19:24:01.244Z,26.90
2019-01-09T19:26:32.746Z,27.93
2019-01-09T19:29:04.298Z,26.53
2019-01-09T19:31:36.006Z,31.03
2019-01-09T19:34:07.327Z,31.17
2019-01-09T19:36:38.510Z,36.10
2019-01-09T19:39:10.558Z,33.60
2019-01-09T19:41:41.814Z,35.35
2019-01-09T19:44:13.265Z,34.73
2019-01-09T19:46:45.613Z,34.37
2019-01-09T19:49:18.015Z,35.53
2019-01-09T19:51:49.213Z,33.87
2019-01-09T19:54:20.376Z,36.53
2019-01-09T19:56:51.868Z,32.03
2019-01-09T19:59:23.132Z,31.20
2019-01-09T20:01:54.259Z,28.23
2019-01-09T20:04:25.454Z,28.30
2019-01-09T20:06:56.588Z,28.73
2019-01-09T20:09:27.926Z,30.30
2019-01-09T20:11:59.127Z,33.20
2019-01-09T20:14:30.554Z,30.43
2019-01-09T20:17:03.041Z,27.80
2019-01-09T20:19:34.645Z,26.13
2019-01-09T20:22:05.921Z,26.23
2019-01-09T20:24:37.364Z,30.83
2019-01-09T20:27:08.610Z,25.63
2019-01-09T20:29:40.251Z,24.13
2019-01-09T20:32:11.389Z,28.53
2019-01-09T20:34:42.695Z,27.07
2019-01-09T20:37:14.355Z,25.07
2019-01-09T20:39:45.792Z,22.33
2019-01-09T20:42:16.908Z,21.23
2019-01-09T20:44:48.022Z,20.07
2019-01-09T20:47:19.874Z,19.60
2019-01-09T20:49:51.134Z,21.13
2019-01-09T20:52:22.374Z,22.97
2019-01-09T20:54:54.279Z,21.60
2019-01-09T20:57:25.422Z,21.03
2019-01-09T20:59:56.585Z,22.47
2019-01-09T21:02:28.066Z,22.20
2019-01-09T21:04:59.719Z,23.03
2019-01-09T21:07:31.054Z,21.73
2019-01-09T21:10:02.204Z,21.63
2019-01-09T21:12:33.433Z,24.33
2019-01-09T21:15:05.216Z,22.97
2019-01-09T21:17:36.319Z,23.73
2019-01-09T21:20:10.177Z,24.73
2019-01-09T21:22:41.521Z,24.77
2019-01-09T21:25:13.044Z,24.50
2019-01-09T21:27:44.896Z,26.30
2019-01-09T21:30:18.296Z,27.50
2019-01-09T21:32:50.730Z,28.70
2019-01-09T21:35:24.468Z,27.90
2019-01-09T21:37:56.856Z,27.33
2019-01-09T21:40:30.497Z,29.53
2019-01-09T21:43:03.028Z,29.00
2019-01-09T21:45:35.184Z,32.03
2019-01-09T21:48:08.654Z,30.30
2019-01-09T21:50:39.880Z,30.00
2019-01-09T21:53:11.972Z,30.83
2019-01-09T21:55:44.146Z,30.77
2019-01-09T21:58:15.956Z,30.60
2019-01-09T22:00:50.276Z,31.13
2019-01-09T22:03:23.226Z,32.37
2019-01-09T22:05:56.427Z,31.43
2019-01-09T22:08:27.756Z,36.13
2019-01-09T22:10:59.683Z,37.43
2019-01-09T22:13:31.837Z,38.43
2019-01-09T22:16:05.365Z,39.50
2019-01-09T22:18:36.691Z,38.97
2019-01-09T22:21:08.789Z,37.73
2019-01-09T22:23:40.547Z,36.67
2019-01-09T22:26:11.690Z,39.20
2019-01-09T22:28:43.250Z,38.03
2019-01-09T22:31:15.246Z,35.37
2019-01-09T22:33:47.787Z,35.10
2019-01-09T22:36:19.207Z,35.43
2019-01-09T22:38:51.750Z,35.33
2019-01-09T22:41:25.511Z,32.67
2019-01-09T22:43:57.947Z,32.00
2019-01-09T22:46:30.946Z,30.43
2019-01-09T22:49:02.755Z,32.27
2019-01-09T22:51:34.054Z,30.97
2019-01-09T22:54:07.505Z,31.97
2019-01-09T22:56:39.698Z,33.33
2019-01-09T22:59:11.935Z,33.67
2019-01-09T23:01:45.056Z,33.80
2019-01-09T23:04:17.136Z,35.67
2019-01-09T23:06:48.758Z,34.57
2019-01-09T23:09:21.536Z,36.30
2019-01-09T23:11:53.769Z,36.37
2019-01-09T23:14:25.973Z,34.70
2019-01-09T23:16:57.184Z,37.53
2019-01-09T23:19:28.825Z,36.53
2019-01-09T23:22:01.009Z,38.10
2019-01-09T23:24:33.226Z,36.20
2019-01-09T23:27:06.618Z,37.13
2019-01-09T23:29:37.871Z,37.23
2019-01-09T23:32:09.747Z,38.10
2019-01-09T23:34:43.326Z,38.13
2019-01-09T23:37:14.822Z,39.90
2019-01-09T23:39:48.050Z,40.57
2019-01-09T23:42:30.063Z,38.87
2019-01-09T23:44:54.268Z,39.33
2019-01-09T23:47:25.992Z,40.60
2019-01-09T23:50:00.603Z,39.57
2019-01-09T23:52:33.395Z,40.37
2019-01-09T23:55:06.745Z,40.93
2019-01-09T23:57:37.866Z,39.47
